Campbells Crossroads, Alabama
Current Conditions -  °F | °C
As of 11:53 AM on Monday 26 Jan 2015 (Local Time) from KANB Reporting Station
Overcast Overcast  
Wind Chill: 32°   Ceiling: 1500
Heat Index: 40°   Visibility: 10mi
Dew Point: 33°   Wind: 15mph
Humidity: 77%   Direction: 310°NW
Pressure: 29.97"   Gusts: 23mph
Location:  33.3533°N, 85.7343°W
Report Text: KANB 261753Z AUTO 31013G20KT 10SM OVC015 04/01 A2997 RMK AO2 SLP155 T00440006 10067 20044 50009
Loading
Personal Weather Stations






























Interactive Weather Map New forecast layout! Learn more

10-Day Weather Forecast

Advertisements
Track Severe Weather on mobile